sensor_id;sensor_type;location;lat;lon;timestamp;P1;durP1;ratioP1;P2;durP2;ratioP2
23578;SDS011;11967;50.852;4.400;2023-07-20T00:00:06;6.75;;;2.78;;
23578;SDS011;11967;50.852;4.400;2023-07-20T00:02:32;6.88;;;2.60;;
23578;SDS011;11967;50.852;4.400;2023-07-20T00:04:58;9.68;;;2.65;;
23578;SDS011;11967;50.852;4.400;2023-07-20T00:07:24;7.78;;;2.58;;
23578;SDS011;11967;50.852;4.400;2023-07-20T00:09:50;8.68;;;3.15;;
23578;SDS011;11967;50.852;4.400;2023-07-20T00:12:16;7.68;;;2.90;;
23578;SDS011;11967;50.852;4.400;2023-07-20T00:14:41;6.13;;;2.80;;
23578;SDS011;11967;50.852;4.400;2023-07-20T00:17:07;8.80;;;2.92;;
23578;SDS011;11967;50.852;4.400;2023-07-20T00:19:33;10.13;;;3.22;;
23578;SDS011;11967;50.852;4.400;2023-07-20T00:21:59;11.50;;;3.47;;
23578;SDS011;11967;50.852;4.400;2023-07-20T00:24:25;9.75;;;2.88;;
23578;SDS011;11967;50.852;4.400;2023-07-20T00:26:51;12.52;;;3.40;;
23578;SDS011;11967;50.852;4.400;2023-07-20T00:29:17;10.45;;;3.47;;
23578;SDS011;11967;50.852;4.400;2023-07-20T00:31:43;6.90;;;3.10;;
23578;SDS011;11967;50.852;4.400;2023-07-20T00:34:08;11.18;;;3.40;;
23578;SDS011;11967;50.852;4.400;2023-07-20T00:36:34;8.70;;;3.10;;
23578;SDS011;11967;50.852;4.400;2023-07-20T00:39:00;9.65;;;3.47;;
23578;SDS011;11967;50.852;4.400;2023-07-20T00:41:25;8.07;;;3.22;;
23578;SDS011;11967;50.852;4.400;2023-07-20T00:43:54;8.48;;;3.30;;
23578;SDS011;11967;50.852;4.400;2023-07-20T00:46:21;10.43;;;3.67;;
23578;SDS011;11967;50.852;4.400;2023-07-20T00:48:48;8.27;;;3.00;;
23578;SDS011;11967;50.852;4.400;2023-07-20T00:51:14;9.73;;;3.65;;
23578;SDS011;11967;50.852;4.400;2023-07-20T00:53:40;14.70;;;3.72;;
23578;SDS011;11967;50.852;4.400;2023-07-20T00:56:06;13.45;;;3.55;;
23578;SDS011;11967;50.852;4.400;2023-07-20T00:58:34;11.23;;;3.50;;
23578;SDS011;11967;50.852;4.400;2023-07-20T01:01:00;11.23;;;3.60;;
23578;SDS011;11967;50.852;4.400;2023-07-20T01:03:25;11.18;;;3.35;;
23578;SDS011;11967;50.852;4.400;2023-07-20T01:05:54;15.55;;;4.03;;
23578;SDS011;11967;50.852;4.400;2023-07-20T01:09:16;10.75;;;3.70;;
23578;SDS011;11967;50.852;4.400;2023-07-20T01:11:32;10.75;;;3.85;;
23578;SDS011;11967;50.852;4.400;2023-07-20T01:16:39;12.35;;;3.30;;
23578;SDS011;11967;50.852;4.400;2023-07-20T01:19:04;12.43;;;4.07;;
23578;SDS011;11967;50.852;4.400;2023-07-20T01:21:36;11.88;;;3.67;;
23578;SDS011;11967;50.852;4.400;2023-07-20T01:32:26;10.27;;;4.03;;
23578;SDS011;11967;50.852;4.400;2023-07-20T01:34:54;7.80;;;3.58;;
23578;SDS011;11967;50.852;4.400;2023-07-20T01:37:25;14.95;;;4.40;;
23578;SDS011;11967;50.852;4.400;2023-07-20T01:39:54;12.95;;;4.00;;
23578;SDS011;11967;50.852;4.400;2023-07-20T01:42:24;11.70;;;4.32;;
23578;SDS011;11967;50.852;4.400;2023-07-20T01:44:54;14.02;;;4.38;;
23578;SDS011;11967;50.852;4.400;2023-07-20T01:47:19;16.15;;;4.60;;
23578;SDS011;11967;50.852;4.400;2023-07-20T01:49:45;9.73;;;4.25;;
23578;SDS011;11967;50.852;4.400;2023-07-20T01:52:11;15.55;;;4.78;;
23578;SDS011;11967;50.852;4.400;2023-07-20T01:54:36;12.63;;;4.82;;
23578;SDS011;11967;50.852;4.400;2023-07-20T01:57:02;15.32;;;4.93;;
23578;SDS011;11967;50.852;4.400;2023-07-20T01:59:29;12.90;;;4.93;;
23578;SDS011;11967;50.852;4.400;2023-07-20T02:01:54;11.23;;;5.03;;
23578;SDS011;11967;50.852;4.400;2023-07-20T02:04:20;15.43;;;5.00;;
23578;SDS011;11967;50.852;4.400;2023-07-20T02:06:45;14.68;;;5.10;;
23578;SDS011;11967;50.852;4.400;2023-07-20T02:09:11;16.85;;;5.90;;
23578;SDS011;11967;50.852;4.400;2023-07-20T02:11:37;18.60;;;5.80;;
23578;SDS011;11967;50.852;4.400;2023-07-20T02:14:02;15.77;;;5.40;;
23578;SDS011;11967;50.852;4.400;2023-07-20T02:16:29;13.43;;;6.03;;
23578;SDS011;11967;50.852;4.400;2023-07-20T02:18:54;12.32;;;5.55;;
23578;SDS011;11967;50.852;4.400;2023-07-20T02:21:22;19.05;;;5.90;;
23578;SDS011;11967;50.852;4.400;2023-07-20T02:23:48;13.13;;;5.68;;
23578;SDS011;11967;50.852;4.400;2023-07-20T02:26:14;14.32;;;5.88;;
23578;SDS011;11967;50.852;4.400;2023-07-20T02:28:40;14.73;;;6.70;;
23578;SDS011;11967;50.852;4.400;2023-07-20T02:31:06;15.63;;;5.57;;
23578;SDS011;11967;50.852;4.400;2023-07-20T02:33:32;15.00;;;6.05;;
23578;SDS011;11967;50.852;4.400;2023-07-20T02:35:58;15.88;;;6.15;;
23578;SDS011;11967;50.852;4.400;2023-07-20T02:38:23;13.55;;;6.20;;
23578;SDS011;11967;50.852;4.400;2023-07-20T02:40:49;13.80;;;6.43;;
23578;SDS011;11967;50.852;4.400;2023-07-20T02:43:15;20.38;;;6.50;;
23578;SDS011;11967;50.852;4.400;2023-07-20T02:45:41;12.73;;;6.07;;
23578;SDS011;11967;50.852;4.400;2023-07-20T02:48:09;10.90;;;5.88;;
23578;SDS011;11967;50.852;4.400;2023-07-20T02:50:35;15.48;;;6.50;;
23578;SDS011;11967;50.852;4.400;2023-07-20T02:53:01;14.02;;;6.00;;
23578;SDS011;11967;50.852;4.400;2023-07-20T02:55:27;15.02;;;5.95;;
23578;SDS011;11967;50.852;4.400;2023-07-20T02:57:53;14.30;;;5.90;;
23578;SDS011;11967;50.852;4.400;2023-07-20T03:00:18;12.57;;;5.65;;
23578;SDS011;11967;50.852;4.400;2023-07-20T03:02:45;17.65;;;7.20;;
23578;SDS011;11967;50.852;4.400;2023-07-20T03:05:12;14.15;;;6.30;;
23578;SDS011;11967;50.852;4.400;2023-07-20T03:07:38;13.35;;;6.82;;
23578;SDS011;11967;50.852;4.400;2023-07-20T03:10:04;14.93;;;6.20;;
23578;SDS011;11967;50.852;4.400;2023-07-20T03:12:34;15.27;;;6.18;;
23578;SDS011;11967;50.852;4.400;2023-07-20T03:15:00;13.85;;;6.10;;
23578;SDS011;11967;50.852;4.400;2023-07-20T03:17:26;14.48;;;6.13;;
23578;SDS011;11967;50.852;4.400;2023-07-20T03:19:52;15.48;;;7.78;;
23578;SDS011;11967;50.852;4.400;2023-07-20T03:22:18;16.05;;;7.45;;
23578;SDS011;11967;50.852;4.400;2023-07-20T03:24:44;13.18;;;6.28;;
23578;SDS011;11967;50.852;4.400;2023-07-20T03:27:09;18.77;;;7.60;;
23578;SDS011;11967;50.852;4.400;2023-07-20T03:29:35;14.05;;;6.93;;
23578;SDS011;11967;50.852;4.400;2023-07-20T03:32:00;15.23;;;6.80;;
23578;SDS011;11967;50.852;4.400;2023-07-20T03:34:26;13.65;;;6.95;;
23578;SDS011;11967;50.852;4.400;2023-07-20T03:36:52;14.70;;;7.45;;
23578;SDS011;11967;50.852;4.400;2023-07-20T03:39:17;12.90;;;7.50;;
23578;SDS011;11967;50.852;4.400;2023-07-20T03:41:43;23.00;;;8.57;;
23578;SDS011;11967;50.852;4.400;2023-07-20T03:44:08;15.00;;;8.30;;
23578;SDS011;11967;50.852;4.400;2023-07-20T03:46:34;18.75;;;8.70;;
23578;SDS011;11967;50.852;4.400;2023-07-20T03:49:00;18.35;;;9.18;;
23578;SDS011;11967;50.852;4.400;2023-07-20T03:51:26;21.50;;;8.45;;
23578;SDS011;11967;50.852;4.400;2023-07-20T03:53:52;18.10;;;8.68;;
23578;SDS011;11967;50.852;4.400;2023-07-20T03:56:17;17.65;;;8.82;;
23578;SDS011;11967;50.852;4.400;2023-07-20T03:58:43;19.20;;;9.05;;
23578;SDS011;11967;50.852;4.400;2023-07-20T04:01:08;20.40;;;9.20;;
23578;SDS011;11967;50.852;4.400;2023-07-20T04:03:34;15.65;;;9.05;;
23578;SDS011;11967;50.852;4.400;2023-07-20T04:06:01;21.15;;;8.85;;
23578;SDS011;11967;50.852;4.400;2023-07-20T04:08:27;17.92;;;8.82;;
23578;SDS011;11967;50.852;4.400;2023-07-20T04:10:52;17.58;;;8.57;;
23578;SDS011;11967;50.852;4.400;2023-07-20T04:13:18;20.08;;;9.07;;
23578;SDS011;11967;50.852;4.400;2023-07-20T04:15:44;17.50;;;8.85;;
23578;SDS011;11967;50.852;4.400;2023-07-20T04:18:09;17.90;;;9.50;;
23578;SDS011;11967;50.852;4.400;2023-07-20T04:20:35;22.25;;;9.13;;
23578;SDS011;11967;50.852;4.400;2023-07-20T04:23:01;17.83;;;8.75;;
23578;SDS011;11967;50.852;4.400;2023-07-20T04:25:26;21.13;;;9.35;;
23578;SDS011;11967;50.852;4.400;2023-07-20T04:27:52;17.05;;;9.48;;
23578;SDS011;11967;50.852;4.400;2023-07-20T04:30:18;21.95;;;10.55;;
23578;SDS011;11967;50.852;4.400;2023-07-20T04:32:47;17.77;;;9.30;;
23578;SDS011;11967;50.852;4.400;2023-07-20T04:38:12;17.20;;;9.40;;
23578;SDS011;11967;50.852;4.400;2023-07-20T04:40:37;17.10;;;9.65;;
23578;SDS011;11967;50.852;4.400;2023-07-20T04:43:03;18.23;;;10.00;;
23578;SDS011;11967;50.852;4.400;2023-07-20T04:45:29;19.40;;;9.38;;
23578;SDS011;11967;50.852;4.400;2023-07-20T04:47:55;17.15;;;10.63;;
23578;SDS011;11967;50.852;4.400;2023-07-20T04:50:21;16.38;;;9.35;;
23578;SDS011;11967;50.852;4.400;2023-07-20T04:52:50;17.25;;;9.23;;
23578;SDS011;11967;50.852;4.400;2023-07-20T04:55:16;16.60;;;8.82;;
23578;SDS011;11967;50.852;4.400;2023-07-20T04:57:41;19.60;;;9.23;;
23578;SDS011;11967;50.852;4.400;2023-07-20T05:00:07;17.13;;;8.95;;
23578;SDS011;11967;50.852;4.400;2023-07-20T05:02:36;16.17;;;9.07;;
23578;SDS011;11967;50.852;4.400;2023-07-20T05:05:01;15.95;;;9.27;;
23578;SDS011;11967;50.852;4.400;2023-07-20T05:07:28;15.27;;;9.35;;
23578;SDS011;11967;50.852;4.400;2023-07-20T05:09:53;15.63;;;9.43;;
23578;SDS011;11967;50.852;4.400;2023-07-20T05:12:19;16.20;;;9.75;;
23578;SDS011;11967;50.852;4.400;2023-07-20T05:14:44;16.27;;;9.73;;
23578;SDS011;11967;50.852;4.400;2023-07-20T05:17:10;15.23;;;8.68;;
23578;SDS011;11967;50.852;4.400;2023-07-20T05:19:36;17.48;;;8.95;;
23578;SDS011;11967;50.852;4.400;2023-07-20T05:22:01;16.92;;;9.20;;
23578;SDS011;11967;50.852;4.400;2023-07-20T05:24:27;18.10;;;9.57;;
23578;SDS011;11967;50.852;4.400;2023-07-20T05:26:52;14.98;;;8.50;;
23578;SDS011;11967;50.852;4.400;2023-07-20T05:29:19;19.00;;;8.90;;
23578;SDS011;11967;50.852;4.400;2023-07-20T05:31:44;20.33;;;8.88;;
23578;SDS011;11967;50.852;4.400;2023-07-20T05:34:10;17.20;;;8.70;;
23578;SDS011;11967;50.852;4.400;2023-07-20T05:36:36;14.10;;;8.43;;
23578;SDS011;11967;50.852;4.400;2023-07-20T05:39:02;16.38;;;8.35;;
23578;SDS011;11967;50.852;4.400;2023-07-20T05:41:27;15.02;;;8.38;;
23578;SDS011;11967;50.852;4.400;2023-07-20T05:43:53;15.80;;;8.20;;
23578;SDS011;11967;50.852;4.400;2023-07-20T05:46:19;15.45;;;7.45;;
23578;SDS011;11967;50.852;4.400;2023-07-20T05:48:44;13.82;;;7.75;;
23578;SDS011;11967;50.852;4.400;2023-07-20T05:51:10;14.18;;;7.95;;
23578;SDS011;11967;50.852;4.400;2023-07-20T05:53:35;16.25;;;7.80;;
23578;SDS011;11967;50.852;4.400;2023-07-20T05:56:01;15.77;;;8.15;;
23578;SDS011;11967;50.852;4.400;2023-07-20T05:58:29;15.18;;;7.60;;
23578;SDS011;11967;50.852;4.400;2023-07-20T06:00:57;13.68;;;7.45;;
23578;SDS011;11967;50.852;4.400;2023-07-20T06:03:23;12.65;;;7.85;;
23578;SDS011;11967;50.852;4.400;2023-07-20T06:05:48;13.30;;;7.90;;
23578;SDS011;11967;50.852;4.400;2023-07-20T06:08:14;10.52;;;7.28;;
23578;SDS011;11967;50.852;4.400;2023-07-20T06:10:40;12.13;;;7.22;;
23578;SDS011;11967;50.852;4.400;2023-07-20T06:13:05;16.23;;;7.75;;
23578;SDS011;11967;50.852;4.400;2023-07-20T06:15:31;12.02;;;6.80;;
23578;SDS011;11967;50.852;4.400;2023-07-20T06:17:59;15.88;;;6.90;;
23578;SDS011;11967;50.852;4.400;2023-07-20T06:20:25;12.82;;;7.47;;
23578;SDS011;11967;50.852;4.400;2023-07-20T06:22:57;16.55;;;8.68;;
23578;SDS011;11967;50.852;4.400;2023-07-20T06:25:23;14.60;;;7.88;;
23578;SDS011;11967;50.852;4.400;2023-07-20T06:27:49;16.45;;;8.40;;
23578;SDS011;11967;50.852;4.400;2023-07-20T06:30:18;17.65;;;8.52;;
23578;SDS011;11967;50.852;4.400;2023-07-20T06:32:44;12.95;;;7.50;;
23578;SDS011;11967;50.852;4.400;2023-07-20T06:35:10;12.30;;;7.80;;
23578;SDS011;11967;50.852;4.400;2023-07-20T06:37:36;13.77;;;6.93;;
23578;SDS011;11967;50.852;4.400;2023-07-20T06:40:02;12.35;;;7.20;;
23578;SDS011;11967;50.852;4.400;2023-07-20T06:42:29;9.15;;;5.63;;
23578;SDS011;11967;50.852;4.400;2023-07-20T06:44:56;11.85;;;5.65;;
23578;SDS011;11967;50.852;4.400;2023-07-20T06:47:22;9.02;;;5.78;;
23578;SDS011;11967;50.852;4.400;2023-07-20T06:49:47;12.38;;;5.85;;
23578;SDS011;11967;50.852;4.400;2023-07-20T06:52:13;9.65;;;4.95;;
23578;SDS011;11967;50.852;4.400;2023-07-20T06:54:39;7.70;;;4.82;;
23578;SDS011;11967;50.852;4.400;2023-07-20T06:57:05;10.95;;;4.78;;
23578;SDS011;11967;50.852;4.400;2023-07-20T06:59:30;7.10;;;3.88;;
23578;SDS011;11967;50.852;4.400;2023-07-20T07:01:56;6.15;;;3.70;;
23578;SDS011;11967;50.852;4.400;2023-07-20T07:04:22;8.25;;;4.50;;
23578;SDS011;11967;50.852;4.400;2023-07-20T07:06:47;7.43;;;3.95;;
23578;SDS011;11967;50.852;4.400;2023-07-20T07:09:13;6.25;;;3.45;;
23578;SDS011;11967;50.852;4.400;2023-07-20T07:11:39;5.75;;;3.40;;
23578;SDS011;11967;50.852;4.400;2023-07-20T07:14:04;6.07;;;3.42;;
23578;SDS011;11967;50.852;4.400;2023-07-20T07:16:30;5.85;;;3.28;;
23578;SDS011;11967;50.852;4.400;2023-07-20T07:18:56;5.50;;;2.65;;
23578;SDS011;11967;50.852;4.400;2023-07-20T07:21:21;4.90;;;1.98;;
23578;SDS011;11967;50.852;4.400;2023-07-20T07:23:47;5.63;;;2.30;;
23578;SDS011;11967;50.852;4.400;2023-07-20T07:26:14;7.95;;;2.30;;
23578;SDS011;11967;50.852;4.400;2023-07-20T07:28:40;5.10;;;1.90;;
23578;SDS011;11967;50.852;4.400;2023-07-20T07:31:05;4.65;;;1.85;;
23578;SDS011;11967;50.852;4.400;2023-07-20T07:33:32;4.97;;;1.98;;
23578;SDS011;11967;50.852;4.400;2023-07-20T07:35:57;5.82;;;1.83;;
23578;SDS011;11967;50.852;4.400;2023-07-20T07:38:23;5.78;;;2.15;;
23578;SDS011;11967;50.852;4.400;2023-07-20T07:40:49;6.88;;;1.80;;
23578;SDS011;11967;50.852;4.400;2023-07-20T07:43:14;5.65;;;1.98;;
23578;SDS011;11967;50.852;4.400;2023-07-20T07:45:40;6.20;;;2.47;;
23578;SDS011;11967;50.852;4.400;2023-07-20T07:48:06;3.53;;;1.83;;
23578;SDS011;11967;50.852;4.400;2023-07-20T07:50:32;3.78;;;1.67;;
23578;SDS011;11967;50.852;4.400;2023-07-20T07:52:58;3.55;;;1.75;;
23578;SDS011;11967;50.852;4.400;2023-07-20T07:55:24;4.95;;;2.00;;
23578;SDS011;11967;50.852;4.400;2023-07-20T07:57:51;4.05;;;1.70;;
23578;SDS011;11967;50.852;4.400;2023-07-20T08:00:17;3.53;;;1.70;;
23578;SDS011;11967;50.852;4.400;2023-07-20T08:02:45;5.32;;;2.38;;
23578;SDS011;11967;50.852;4.400;2023-07-20T08:05:13;2.40;;;1.65;;
23578;SDS011;11967;50.852;4.400;2023-07-20T08:07:39;2.60;;;1.83;;
23578;SDS011;11967;50.852;4.400;2023-07-20T08:10:05;3.83;;;1.90;;
23578;SDS011;11967;50.852;4.400;2023-07-20T08:12:31;3.75;;;1.77;;
23578;SDS011;11967;50.852;4.400;2023-07-20T08:14:57;3.25;;;1.52;;
23578;SDS011;11967;50.852;4.400;2023-07-20T08:17:22;8.05;;;1.98;;
23578;SDS011;11967;50.852;4.400;2023-07-20T08:19:48;5.95;;;2.67;;
23578;SDS011;11967;50.852;4.400;2023-07-20T08:22:14;3.17;;;2.15;;
23578;SDS011;11967;50.852;4.400;2023-07-20T08:24:40;6.25;;;2.17;;
23578;SDS011;11967;50.852;4.400;2023-07-20T08:27:07;4.28;;;1.60;;
23578;SDS011;11967;50.852;4.400;2023-07-20T08:29:33;3.95;;;1.55;;
23578;SDS011;11967;50.852;4.400;2023-07-20T08:31:59;3.20;;;1.60;;
23578;SDS011;11967;50.852;4.400;2023-07-20T08:34:25;2.53;;;1.50;;
23578;SDS011;11967;50.852;4.400;2023-07-20T08:36:50;5.03;;;1.77;;
23578;SDS011;11967;50.852;4.400;2023-07-20T08:39:16;4.30;;;2.00;;
23578;SDS011;11967;50.852;4.400;2023-07-20T08:41:42;5.10;;;1.75;;
23578;SDS011;11967;50.852;4.400;2023-07-20T08:44:08;2.58;;;1.73;;
23578;SDS011;11967;50.852;4.400;2023-07-20T08:46:38;5.35;;;1.83;;
23578;SDS011;11967;50.852;4.400;2023-07-20T08:49:05;5.05;;;2.00;;
23578;SDS011;11967;50.852;4.400;2023-07-20T08:51:31;3.58;;;1.95;;
23578;SDS011;11967;50.852;4.400;2023-07-20T08:53:58;3.83;;;1.70;;
23578;SDS011;11967;50.852;4.400;2023-07-20T08:56:25;5.28;;;1.80;;
23578;SDS011;11967;50.852;4.400;2023-07-20T08:58:54;3.40;;;1.40;;
23578;SDS011;11967;50.852;4.400;2023-07-20T09:01:21;3.75;;;1.55;;
23578;SDS011;11967;50.852;4.400;2023-07-20T09:03:47;3.65;;;1.60;;
23578;SDS011;11967;50.852;4.400;2023-07-20T09:06:14;2.78;;;1.52;;
23578;SDS011;11967;50.852;4.400;2023-07-20T09:08:41;2.28;;;1.40;;
23578;SDS011;11967;50.852;4.400;2023-07-20T09:11:07;4.10;;;1.67;;
23578;SDS011;11967;50.852;4.400;2023-07-20T09:13:33;2.08;;;1.50;;
23578;SDS011;11967;50.852;4.400;2023-07-20T09:15:59;2.97;;;1.60;;
23578;SDS011;11967;50.852;4.400;2023-07-20T09:18:25;4.60;;;1.70;;
23578;SDS011;11967;50.852;4.400;2023-07-20T09:20:58;2.70;;;1.40;;
23578;SDS011;11967;50.852;4.400;2023-07-20T09:23:31;2.58;;;1.52;;
23578;SDS011;11967;50.852;4.400;2023-07-20T09:26:11;2.90;;;1.40;;
23578;SDS011;11967;50.852;4.400;2023-07-20T09:28:42;4.00;;;1.58;;
23578;SDS011;11967;50.852;4.400;2023-07-20T09:31:17;5.45;;;2.40;;
23578;SDS011;11967;50.852;4.400;2023-07-20T09:36:10;2.85;;;1.50;;
23578;SDS011;11967;50.852;4.400;2023-07-20T09:38:42;3.10;;;1.50;;
23578;SDS011;11967;50.852;4.400;2023-07-20T09:41:13;2.75;;;1.67;;
23578;SDS011;11967;50.852;4.400;2023-07-20T09:43:40;3.80;;;1.48;;
23578;SDS011;11967;50.852;4.400;2023-07-20T09:46:06;2.47;;;1.50;;
23578;SDS011;11967;50.852;4.400;2023-07-20T09:48:32;2.35;;;1.30;;
23578;SDS011;11967;50.852;4.400;2023-07-20T09:50:58;3.22;;;1.52;;
23578;SDS011;11967;50.852;4.400;2023-07-20T09:53:24;2.47;;;1.52;;
23578;SDS011;11967;50.852;4.400;2023-07-20T09:55:51;2.75;;;1.45;;
23578;SDS011;11967;50.852;4.400;2023-07-20T09:58:18;3.17;;;1.60;;
23578;SDS011;11967;50.852;4.400;2023-07-20T10:00:44;3.30;;;1.40;;
23578;SDS011;11967;50.852;4.400;2023-07-20T10:03:19;2.45;;;1.35;;
23578;SDS011;11967;50.852;4.400;2023-07-20T10:05:48;3.40;;;1.42;;
23578;SDS011;11967;50.852;4.400;2023-07-20T10:08:20;2.17;;;1.40;;
23578;SDS011;11967;50.852;4.400;2023-07-20T10:10:49;2.08;;;1.40;;
23578;SDS011;11967;50.852;4.400;2023-07-20T10:13:21;3.58;;;1.35;;
23578;SDS011;11967;50.852;4.400;2023-07-20T10:15:53;4.38;;;1.40;;
23578;SDS011;11967;50.852;4.400;2023-07-20T10:21:27;2.38;;;1.30;;
23578;SDS011;11967;50.852;4.400;2023-07-20T10:23:54;2.55;;;1.50;;
23578;SDS011;11967;50.852;4.400;2023-07-20T10:26:22;2.45;;;1.58;;
23578;SDS011;11967;50.852;4.400;2023-07-20T10:28:48;2.20;;;1.50;;
23578;SDS011;11967;50.852;4.400;2023-07-20T10:31:14;4.20;;;1.70;;
23578;SDS011;11967;50.852;4.400;2023-07-20T10:33:42;3.17;;;1.40;;
23578;SDS011;11967;50.852;4.400;2023-07-20T10:36:08;1.92;;;1.30;;
23578;SDS011;11967;50.852;4.400;2023-07-20T10:41:21;2.05;;;1.45;;
23578;SDS011;11967;50.852;4.400;2023-07-20T10:43:55;3.45;;;1.20;;
23578;SDS011;11967;50.852;4.400;2023-07-20T10:49:05;2.22;;;1.40;;
23578;SDS011;11967;50.852;4.400;2023-07-20T10:56:43;4.55;;;1.77;;
23578;SDS011;11967;50.852;4.400;2023-07-20T10:59:19;3.00;;;1.48;;
23578;SDS011;11967;50.852;4.400;2023-07-20T11:01:48;4.45;;;1.60;;
23578;SDS011;11967;50.852;4.400;2023-07-20T11:04:14;2.65;;;1.52;;
23578;SDS011;11967;50.852;4.400;2023-07-20T11:06:45;2.92;;;1.60;;
23578;SDS011;11967;50.852;4.400;2023-07-20T11:09:12;3.15;;;1.42;;
23578;SDS011;11967;50.852;4.400;2023-07-20T11:11:46;2.50;;;1.60;;
23578;SDS011;11967;50.852;4.400;2023-07-20T11:14:23;3.00;;;1.70;;
23578;SDS011;11967;50.852;4.400;2023-07-20T11:16:50;2.72;;;1.50;;
23578;SDS011;11967;50.852;4.400;2023-07-20T11:19:20;3.72;;;1.65;;
23578;SDS011;11967;50.852;4.400;2023-07-20T11:21:51;2.78;;;1.60;;
23578;SDS011;11967;50.852;4.400;2023-07-20T11:24:19;4.05;;;1.50;;
23578;SDS011;11967;50.852;4.400;2023-07-20T11:26:49;2.85;;;1.45;;
23578;SDS011;11967;50.852;4.400;2023-07-20T11:29:16;4.55;;;1.52;;
23578;SDS011;11967;50.852;4.400;2023-07-20T11:31:44;2.92;;;1.33;;
23578;SDS011;11967;50.852;4.400;2023-07-20T11:34:11;4.38;;;1.42;;
23578;SDS011;11967;50.852;4.400;2023-07-20T11:36:39;2.25;;;1.50;;
23578;SDS011;11967;50.852;4.400;2023-07-20T11:39:06;9.75;;;1.70;;
23578;SDS011;11967;50.852;4.400;2023-07-20T11:41:37;3.25;;;1.95;;
23578;SDS011;11967;50.852;4.400;2023-07-20T11:44:06;3.67;;;1.58;;
23578;SDS011;11967;50.852;4.400;2023-07-20T11:46:32;3.28;;;1.38;;
23578;SDS011;11967;50.852;4.400;2023-07-20T11:48:59;3.53;;;1.63;;
23578;SDS011;11967;50.852;4.400;2023-07-20T11:51:29;2.38;;;1.55;;
23578;SDS011;11967;50.852;4.400;2023-07-20T11:53:57;2.83;;;1.80;;
23578;SDS011;11967;50.852;4.400;2023-07-20T11:56:24;2.55;;;1.67;;
23578;SDS011;11967;50.852;4.400;2023-07-20T11:58:50;3.75;;;1.90;;
23578;SDS011;11967;50.852;4.400;2023-07-20T12:01:20;2.35;;;1.67;;
23578;SDS011;11967;50.852;4.400;2023-07-20T12:03:45;2.25;;;1.67;;
23578;SDS011;11967;50.852;4.400;2023-07-20T12:06:13;2.80;;;1.63;;
23578;SDS011;11967;50.852;4.400;2023-07-20T12:08:39;2.40;;;1.73;;
23578;SDS011;11967;50.852;4.400;2023-07-20T12:11:07;3.13;;;2.00;;
23578;SDS011;11967;50.852;4.400;2023-07-20T12:13:37;4.45;;;2.10;;
23578;SDS011;11967;50.852;4.400;2023-07-20T12:16:12;3.50;;;2.25;;
23578;SDS011;11967;50.852;4.400;2023-07-20T12:18:40;6.60;;;2.80;;
23578;SDS011;11967;50.852;4.400;2023-07-20T12:21:08;8.02;;;4.35;;
23578;SDS011;11967;50.852;4.400;2023-07-20T12:23:35;5.38;;;3.20;;
23578;SDS011;11967;50.852;4.400;2023-07-20T12:26:08;7.05;;;2.88;;
23578;SDS011;11967;50.852;4.400;2023-07-20T12:28:41;7.30;;;4.18;;
23578;SDS011;11967;50.852;4.400;2023-07-20T12:31:07;9.77;;;5.30;;
23578;SDS011;11967;50.852;4.400;2023-07-20T12:33:34;5.07;;;3.25;;
23578;SDS011;11967;50.852;4.400;2023-07-20T12:36:00;3.65;;;2.60;;
23578;SDS011;11967;50.852;4.400;2023-07-20T12:38:26;4.53;;;2.80;;
23578;SDS011;11967;50.852;4.400;2023-07-20T12:40:53;3.78;;;2.70;;
23578;SDS011;11967;50.852;4.400;2023-07-20T12:43:20;5.03;;;2.55;;
23578;SDS011;11967;50.852;4.400;2023-07-20T12:45:46;3.70;;;2.58;;
23578;SDS011;11967;50.852;4.400;2023-07-20T12:48:12;4.95;;;2.88;;
23578;SDS011;11967;50.852;4.400;2023-07-20T12:50:38;3.55;;;2.83;;
23578;SDS011;11967;50.852;4.400;2023-07-20T12:53:04;4.05;;;2.90;;
23578;SDS011;11967;50.852;4.400;2023-07-20T12:55:30;4.45;;;2.65;;
23578;SDS011;11967;50.852;4.400;2023-07-20T12:57:56;3.70;;;2.45;;
23578;SDS011;11967;50.852;4.400;2023-07-20T13:00:22;4.63;;;3.03;;
23578;SDS011;11967;50.852;4.400;2023-07-20T13:02:48;7.93;;;4.75;;
23578;SDS011;11967;50.852;4.400;2023-07-20T13:05:14;4.15;;;3.53;;
23578;SDS011;11967;50.852;4.400;2023-07-20T13:07:40;5.70;;;3.58;;
23578;SDS011;11967;50.852;4.400;2023-07-20T13:10:07;4.25;;;2.72;;
23578;SDS011;11967;50.852;4.400;2023-07-20T13:12:33;4.43;;;2.72;;
23578;SDS011;11967;50.852;4.400;2023-07-20T13:15:03;3.85;;;2.50;;
23578;SDS011;11967;50.852;4.400;2023-07-20T13:17:36;4.97;;;2.28;;
23578;SDS011;11967;50.852;4.400;2023-07-20T13:20:06;6.03;;;4.20;;
23578;SDS011;11967;50.852;4.400;2023-07-20T13:22:35;4.25;;;2.70;;
23578;SDS011;11967;50.852;4.400;2023-07-20T13:25:01;3.58;;;2.00;;
23578;SDS011;11967;50.852;4.400;2023-07-20T13:27:36;4.05;;;2.33;;
23578;SDS011;11967;50.852;4.400;2023-07-20T13:30:23;7.57;;;2.80;;
23578;SDS011;11967;50.852;4.400;2023-07-20T13:32:49;7.72;;;2.60;;
23578;SDS011;11967;50.852;4.400;2023-07-20T13:35:14;8.95;;;3.20;;
23578;SDS011;11967;50.852;4.400;2023-07-20T13:37:40;7.13;;;2.85;;
23578;SDS011;11967;50.852;4.400;2023-07-20T13:40:06;6.20;;;3.30;;
23578;SDS011;11967;50.852;4.400;2023-07-20T13:42:37;7.15;;;4.07;;
23578;SDS011;11967;50.852;4.400;2023-07-20T13:45:04;6.25;;;3.67;;
23578;SDS011;11967;50.852;4.400;2023-07-20T13:47:30;5.78;;;3.08;;
23578;SDS011;11967;50.852;4.400;2023-07-20T13:49:55;5.32;;;2.92;;
23578;SDS011;11967;50.852;4.400;2023-07-20T13:52:21;3.33;;;2.60;;
23578;SDS011;11967;50.852;4.400;2023-07-20T13:54:47;5.07;;;2.58;;
23578;SDS011;11967;50.852;4.400;2023-07-20T13:57:13;4.25;;;2.30;;
23578;SDS011;11967;50.852;4.400;2023-07-20T13:59:39;3.90;;;2.70;;
23578;SDS011;11967;50.852;4.400;2023-07-20T14:02:05;5.60;;;2.60;;
23578;SDS011;11967;50.852;4.400;2023-07-20T14:04:31;3.88;;;2.17;;
23578;SDS011;11967;50.852;4.400;2023-07-20T14:06:57;3.70;;;2.10;;
23578;SDS011;11967;50.852;4.400;2023-07-20T14:09:22;5.35;;;1.98;;
23578;SDS011;11967;50.852;4.400;2023-07-20T14:11:48;6.68;;;2.35;;
23578;SDS011;11967;50.852;4.400;2023-07-20T14:14:13;7.30;;;2.53;;
23578;SDS011;11967;50.852;4.400;2023-07-20T14:16:39;4.90;;;2.60;;
23578;SDS011;11967;50.852;4.400;2023-07-20T14:19:05;4.55;;;2.65;;
23578;SDS011;11967;50.852;4.400;2023-07-20T14:21:30;7.15;;;2.33;;
23578;SDS011;11967;50.852;4.400;2023-07-20T14:23:56;3.50;;;2.10;;
23578;SDS011;11967;50.852;4.400;2023-07-20T14:26:23;3.35;;;1.70;;
23578;SDS011;11967;50.852;4.400;2023-07-20T14:28:48;6.13;;;2.30;;
23578;SDS011;11967;50.852;4.400;2023-07-20T14:31:14;4.10;;;2.03;;
23578;SDS011;11967;50.852;4.400;2023-07-20T14:33:40;5.82;;;2.50;;
23578;SDS011;11967;50.852;4.400;2023-07-20T14:36:05;4.15;;;1.95;;
23578;SDS011;11967;50.852;4.400;2023-07-20T14:38:31;3.88;;;2.15;;
23578;SDS011;11967;50.852;4.400;2023-07-20T14:40:58;6.47;;;2.15;;
23578;SDS011;11967;50.852;4.400;2023-07-20T14:43:24;4.55;;;2.08;;
23578;SDS011;11967;50.852;4.400;2023-07-20T14:45:50;2.83;;;1.90;;
23578;SDS011;11967;50.852;4.400;2023-07-20T14:48:15;4.03;;;2.00;;
23578;SDS011;11967;50.852;4.400;2023-07-20T14:50:41;3.85;;;1.85;;
23578;SDS011;11967;50.852;4.400;2023-07-20T14:53:07;2.45;;;1.70;;
23578;SDS011;11967;50.852;4.400;2023-07-20T14:55:33;5.38;;;2.03;;
23578;SDS011;11967;50.852;4.400;2023-07-20T14:57:59;6.95;;;2.55;;
23578;SDS011;11967;50.852;4.400;2023-07-20T15:00:24;4.53;;;2.60;;
23578;SDS011;11967;50.852;4.400;2023-07-20T15:02:53;4.63;;;2.30;;
23578;SDS011;11967;50.852;4.400;2023-07-20T15:05:21;4.63;;;2.20;;
23578;SDS011;11967;50.852;4.400;2023-07-20T15:07:47;4.78;;;2.42;;
23578;SDS011;11967;50.852;4.400;2023-07-20T15:10:13;3.95;;;2.20;;